Broadwell, Kentucky
Current Conditions -  °F | °C
As of 8:55 PM on Sunday 21 Dec 2014 (Local Time) from KIOB Reporting Station
Clear Clear  
Wind Chill: 27°   Ceiling: Unl
Heat Index: 32°   Visibility: 10mi
Dew Point: 28°   Wind: 5mph
Humidity: 87%   Direction: 100°E
Pressure: 30.15"   Gusts: NA
Location:  38.4145°N, 84.2859°W
Report Text: KIOB 220155Z AUTO 10004KT 10SM CLR 00/M02 A3015 RMK AO2
Loading
Personal Weather Stations






























Interactive Weather Map New forecast layout! Learn more

10-Day Weather Forecast

Advertisements
Track Severe Weather on mobile